createdAt,value
2019-02-27T00:00:04.576Z,97.49
2019-02-27T00:01:18.403Z,97.38
2019-02-27T00:02:03.414Z,97.49
2019-02-27T00:03:03.385Z,97.38
2019-02-27T00:04:03.375Z,97.49
2019-02-27T00:05:03.310Z,97.59
2019-02-27T00:06:03.268Z,97.75
2019-02-27T00:07:03.250Z,97.65
2019-02-27T00:08:03.205Z,97.38
2019-02-27T00:09:03.232Z,97.64
2019-02-27T00:10:05.900Z,97.43
2019-02-27T00:11:03.102Z,97.53
2019-02-27T00:12:03.079Z,97.59
2019-02-27T00:13:03.024Z,97.38
2019-02-27T00:14:03.023Z,98.53
2019-02-27T00:15:05.099Z,98.22
2019-02-27T00:16:02.926Z,98.07
2019-02-27T00:17:02.880Z,98.18
2019-02-27T00:18:02.855Z,97.97
2019-02-27T00:19:02.838Z,97.65
2019-02-27T00:20:04.994Z,97.97
2019-02-27T00:21:02.741Z,98.07
2019-02-27T00:22:02.711Z,98.11
2019-02-27T00:23:02.691Z,98.18
2019-02-27T00:24:02.659Z,98.22
2019-02-27T00:25:03.545Z,98.58
2019-02-27T00:26:02.571Z,98.22
2019-02-27T00:27:02.530Z,98.22
2019-02-27T00:28:03.413Z,98.01
2019-02-27T00:29:02.519Z,98.01
2019-02-27T00:30:04.752Z,98.05
2019-02-27T00:31:02.724Z,98.05
2019-02-27T00:32:02.354Z,97.85
2019-02-27T00:33:02.898Z,97.53
2019-02-27T00:34:02.305Z,97.64
2019-02-27T00:35:06.482Z,97.68
2019-02-27T00:36:02.229Z,97.68
2019-02-27T00:37:02.182Z,97.58
2019-02-27T00:38:02.143Z,97.74
2019-02-27T00:39:02.145Z,97.89
2019-02-27T00:40:05.278Z,98.58
2019-02-27T00:41:02.038Z,98.21
2019-02-27T00:42:01.999Z,97.89
2019-02-27T00:43:01.964Z,98.41
2019-02-27T00:44:02.031Z,97.68
2019-02-27T00:45:01.900Z,97.47
2019-02-27T00:46:01.855Z,97.52
2019-02-27T00:47:01.825Z,97.89
2019-02-27T00:48:01.787Z,97.68
2019-02-27T00:49:01.774Z,97.89
2019-02-27T00:50:05.656Z,97.47
2019-02-27T00:51:01.719Z,97.62
2019-02-27T00:52:01.644Z,97.68
2019-02-27T00:53:01.607Z,97.72
2019-02-27T00:54:01.574Z,97.78
2019-02-27T00:55:04.297Z,97.72
2019-02-27T00:56:01.517Z,98.52
2019-02-27T00:57:01.467Z,98.10
2019-02-27T00:58:01.441Z,98.41
2019-02-27T00:59:01.409Z,97.99
2019-02-27T01:00:04.041Z,98.26
2019-02-27T01:01:01.327Z,98.58
2019-02-27T01:02:01.289Z,98.37
2019-02-27T01:03:01.255Z,98.26
2019-02-27T01:04:02.419Z,98.26
2019-02-27T01:05:01.455Z,98.10
2019-02-27T01:06:01.159Z,98.26
2019-02-27T01:07:01.151Z,98.37
2019-02-27T01:08:01.082Z,98.31
2019-02-27T01:09:01.039Z,98.37
2019-02-27T01:10:01.040Z,97.95
2019-02-27T01:11:01.908Z,98.41
2019-02-27T01:12:00.935Z,98.10
2019-02-27T01:13:00.896Z,98.21
2019-02-27T01:14:03.717Z,98.52
2019-02-27T01:15:00.855Z,98.56
2019-02-27T01:16:00.791Z,98.14
2019-02-27T01:17:00.766Z,98.46
2019-02-27T01:18:00.728Z,98.04
2019-02-27T01:19:02.243Z,97.72
2019-02-27T01:20:00.677Z,97.62
2019-02-27T01:21:00.613Z,97.52
2019-02-27T01:22:00.594Z,97.45
2019-02-27T01:23:00.545Z,97.45
2019-02-27T01:24:00.512Z,97.45
2019-02-27T01:25:00.519Z,97.67
2019-02-27T01:26:00.502Z,97.67
2019-02-27T01:27:04.215Z,97.77
2019-02-27T01:28:01.666Z,97.45
2019-02-27T01:29:00.341Z,97.67
2019-02-27T01:30:00.324Z,97.61
2019-02-27T01:31:00.258Z,97.14
2019-02-27T01:32:00.222Z,97.08
2019-02-27T01:33:04.001Z,97.61
2019-02-27T01:34:00.150Z,97.61
2019-02-27T01:35:00.308Z,97.81
2019-02-27T01:36:00.083Z,97.81
2019-02-27T01:37:00.045Z,97.71
2019-02-27T01:38:00.009Z,97.50
2019-02-27T01:39:00.033Z,97.50
2019-02-27T01:39:59.965Z,97.81
2019-02-27T01:40:59.916Z,98.02
2019-02-27T01:41:59.866Z,97.71
2019-02-27T01:42:59.828Z,98.02
2019-02-27T01:43:59.801Z,98.02
2019-02-27T01:44:59.786Z,97.61
2019-02-27T01:46:00.469Z,97.34
2019-02-27T01:47:02.412Z,97.50
2019-02-27T01:47:59.652Z,97.39
2019-02-27T01:49:00.405Z,97.50
2019-02-27T01:49:59.606Z,97.75
2019-02-27T01:50:59.543Z,97.81
2019-02-27T01:52:02.075Z,97.92
2019-02-27T01:52:59.476Z,97.81
2019-02-27T01:53:59.440Z,97.50
2019-02-27T01:54:59.424Z,97.71
2019-02-27T01:55:59.912Z,97.71
2019-02-27T01:56:59.923Z,97.81
2019-02-27T01:57:59.904Z,98.02
2019-02-27T01:58:59.903Z,97.81
2019-02-27T01:59:59.267Z,97.92
2019-02-27T02:00:59.905Z,97.92
2019-02-27T02:02:01.098Z,97.81
2019-02-27T02:02:59.115Z,97.81
2019-02-27T02:03:59.083Z,97.61
2019-02-27T02:04:59.043Z,97.81
2019-02-27T02:05:59.783Z,97.81
2019-02-27T02:06:58.969Z,97.71
2019-02-27T02:07:58.936Z,98.65
2019-02-27T02:08:58.896Z,98.34
2019-02-27T02:09:58.855Z,98.24
2019-02-27T02:11:01.261Z,98.08
2019-02-27T02:11:58.795Z,98.13
2019-02-27T02:12:59.405Z,97.98
2019-02-27T02:13:58.713Z,98.08
2019-02-27T02:14:58.677Z,97.61
2019-02-27T02:16:00.860Z,97.81
2019-02-27T02:16:58.611Z,97.71
2019-02-27T02:17:58.571Z,97.71
2019-02-27T02:18:58.540Z,97.50
2019-02-27T02:19:58.499Z,97.81
2019-02-27T02:21:01.694Z,97.39
2019-02-27T02:21:58.434Z,97.34
2019-02-27T02:22:58.403Z,97.23
2019-02-27T02:23:58.357Z,97.50
2019-02-27T02:24:58.322Z,97.23
2019-02-27T02:26:01.061Z,97.96
2019-02-27T02:26:58.255Z,97.13
2019-02-27T02:27:58.218Z,97.44
2019-02-27T02:28:58.911Z,97.86
2019-02-27T02:29:58.137Z,98.07
2019-02-27T02:30:58.165Z,98.07
2019-02-27T02:31:58.067Z,97.86
2019-02-27T02:32:58.035Z,97.96
2019-02-27T02:33:57.995Z,97.55
2019-02-27T02:34:58.902Z,97.75
2019-02-27T02:35:57.928Z,97.75
2019-02-27T02:37:01.477Z,97.81
2019-02-27T02:37:57.851Z,97.61
2019-02-27T02:38:57.828Z,98.02
2019-02-27T02:39:57.784Z,97.92
2019-02-27T02:40:57.750Z,97.86
2019-02-27T02:41:58.064Z,97.86
2019-02-27T02:42:59.122Z,97.75
2019-02-27T02:43:57.637Z,97.71
2019-02-27T02:44:58.395Z,97.81
2019-02-27T02:45:57.581Z,97.86
2019-02-27T02:46:57.574Z,97.61
2019-02-27T02:47:58.408Z,97.81
2019-02-27T02:48:57.459Z,97.23
2019-02-27T02:49:57.424Z,97.96
2019-02-27T02:50:57.385Z,97.86
2019-02-27T02:51:57.358Z,97.96
2019-02-27T02:52:57.452Z,97.86
2019-02-27T02:54:01.867Z,97.86
2019-02-27T02:54:57.242Z,97.86
2019-02-27T02:55:57.916Z,97.75
2019-02-27T02:57:00.169Z,97.86
2019-02-27T02:57:57.158Z,97.86
2019-02-27T02:58:57.107Z,98.07
2019-02-27T03:00:00.147Z,97.86
2019-02-27T03:00:57.027Z,97.96
2019-02-27T03:01:56.998Z,97.75
2019-02-27T03:02:57.551Z,98.07
2019-02-27T03:03:56.934Z,98.28
2019-02-27T03:04:56.887Z,98.28
2019-02-27T03:05:59.767Z,97.55
2019-02-27T03:06:56.821Z,97.86
2019-02-27T03:07:56.810Z,98.07
2019-02-27T03:08:56.755Z,97.86
2019-02-27T03:09:56.704Z,97.96
2019-02-27T03:10:56.673Z,98.18
2019-02-27T03:11:56.646Z,98.28
2019-02-27T03:12:56.967Z,97.71
2019-02-27T03:13:57.421Z,97.75
2019-02-27T03:14:56.525Z,97.65
2019-02-27T03:15:56.491Z,97.55
2019-02-27T03:16:56.633Z,98.07
2019-02-27T03:17:57.406Z,97.75
2019-02-27T03:18:56.406Z,97.65
2019-02-27T03:19:56.374Z,97.86
2019-02-27T03:20:56.316Z,97.86
2019-02-27T03:21:56.300Z,97.75
2019-02-27T03:22:56.234Z,97.96
2019-02-27T03:23:56.229Z,97.86
2019-02-27T03:24:56.911Z,97.75
2019-02-27T03:25:56.133Z,97.86
2019-02-27T03:26:56.096Z,97.96
2019-02-27T03:27:56.069Z,97.59
2019-02-27T03:28:56.459Z,97.86
2019-02-27T03:29:56.009Z,97.80
2019-02-27T03:30:55.948Z,97.69
2019-02-27T03:31:59.958Z,97.69
2019-02-27T03:32:55.987Z,97.59
2019-02-27T03:34:05.138Z,97.38
2019-02-27T03:34:55.816Z,97.49
2019-02-27T03:35:55.773Z,97.59
2019-02-27T03:36:55.747Z,97.28
2019-02-27T03:37:55.697Z,97.17
2019-02-27T03:38:59.122Z,97.17
2019-02-27T03:39:55.623Z,97.17
2019-02-27T03:40:55.645Z,97.38
2019-02-27T03:41:59.341Z,96.96
2019-02-27T03:42:55.539Z,97.32
2019-02-27T03:43:55.481Z,97.28
2019-02-27T03:44:57.085Z,97.06
2019-02-27T03:45:55.925Z,97.74
2019-02-27T03:46:55.376Z,97.53
2019-02-27T03:47:55.337Z,97.63
2019-02-27T03:49:03.033Z,97.74
2019-02-27T03:49:55.285Z,97.63
2019-02-27T03:50:55.252Z,97.58
2019-02-27T03:51:59.700Z,97.78
2019-02-27T03:52:55.914Z,97.68
2019-02-27T03:53:55.119Z,97.26
2019-02-27T03:54:58.022Z,97.22
2019-02-27T03:55:55.134Z,97.36
2019-02-27T03:56:55.078Z,97.36
2019-02-27T03:58:00.819Z,97.22
2019-02-27T03:58:55.028Z,97.22
2019-02-27T03:59:55.078Z,97.74
2019-02-27T04:00:54.994Z,97.63
2019-02-27T04:01:56.831Z,97.63
2019-02-27T04:02:55.446Z,97.22
2019-02-27T04:03:55.463Z,97.59
2019-02-27T04:04:54.772Z,97.80
2019-02-27T04:06:03.327Z,97.28
2019-02-27T04:06:56.445Z,97.42
2019-02-27T04:07:54.611Z,97.42
2019-02-27T04:08:54.578Z,97.28
2019-02-27T04:09:55.389Z,97.17
2019-02-27T04:10:54.507Z,97.22
2019-02-27T04:11:54.473Z,97.22
2019-02-27T04:12:54.438Z,97.42
2019-02-27T04:13:54.394Z,97.22
2019-02-27T04:14:54.359Z,97.32
2019-02-27T04:15:54.459Z,97.11
2019-02-27T04:16:54.322Z,97.22
2019-02-27T04:17:54.250Z,97.42
2019-02-27T04:18:54.225Z,97.85
2019-02-27T04:19:54.182Z,97.95
2019-02-27T04:20:54.205Z,97.74
2019-02-27T04:21:54.107Z,97.63
2019-02-27T04:22:54.075Z,97.85
2019-02-27T04:23:54.168Z,97.85
2019-02-27T04:24:56.860Z,97.80
2019-02-27T04:25:53.962Z,97.69
2019-02-27T04:26:53.988Z,97.69
2019-02-27T04:27:55.479Z,97.80
2019-02-27T04:28:54.416Z,98.22
2019-02-27T04:29:53.833Z,98.74
2019-02-27T04:30:53.779Z,98.11
2019-02-27T04:31:53.784Z,97.80
2019-02-27T04:32:53.717Z,98.01
2019-02-27T04:33:53.671Z,97.69
2019-02-27T04:34:53.641Z,97.91
2019-02-27T04:35:53.602Z,97.91
2019-02-27T04:36:53.593Z,97.59
2019-02-27T04:37:54.419Z,98.11
2019-02-27T04:38:53.489Z,97.95
2019-02-27T04:39:54.419Z,97.95
2019-02-27T04:40:53.419Z,97.80
2019-02-27T04:41:53.405Z,97.85
2019-02-27T04:42:53.343Z,97.59
2019-02-27T04:43:53.317Z,97.91
2019-02-27T04:44:53.272Z,98.11
2019-02-27T04:45:53.235Z,97.95
2019-02-27T04:46:55.065Z,97.17
2019-02-27T04:47:53.162Z,97.32
2019-02-27T04:48:53.129Z,97.42
2019-02-27T04:49:53.135Z,97.42
2019-02-27T04:50:53.909Z,97.49
2019-02-27T04:51:53.064Z,97.63
2019-02-27T04:52:57.728Z,97.42
2019-02-27T04:53:52.951Z,97.22
2019-02-27T04:54:52.938Z,97.22
2019-02-27T04:55:52.881Z,97.42
2019-02-27T04:56:55.056Z,97.11
2019-02-27T04:57:52.804Z,97.63
2019-02-27T04:58:52.776Z,97.42
2019-02-27T04:59:52.871Z,97.49
2019-02-27T05:00:52.696Z,97.32
2019-02-27T05:01:52.661Z,96.69
2019-02-27T05:02:54.098Z,97.32
2019-02-27T05:03:52.586Z,97.63
2019-02-27T05:04:52.581Z,97.22
2019-02-27T05:05:52.519Z,97.00
2019-02-27T05:06:52.549Z,97.22
2019-02-27T05:07:54.295Z,96.69
2019-02-27T05:08:52.405Z,97.32
2019-02-27T05:09:52.379Z,97.47
2019-02-27T05:10:52.336Z,97.22
2019-02-27T05:11:52.302Z,97.32
2019-02-27T05:12:52.448Z,97.42
2019-02-27T05:13:54.372Z,97.32
2019-02-27T05:14:52.188Z,97.32
2019-02-27T05:15:52.154Z,97.22
2019-02-27T05:16:52.138Z,97.22
2019-02-27T05:17:53.051Z,97.11
2019-02-27T05:18:52.050Z,97.22
2019-02-27T05:19:52.111Z,97.32
2019-02-27T05:20:51.994Z,97.22
2019-02-27T05:21:52.561Z,97.11
2019-02-27T05:22:51.923Z,96.84
2019-02-27T05:23:51.859Z,97.36
2019-02-27T05:24:51.823Z,97.58
2019-02-27T05:25:51.792Z,97.05
2019-02-27T05:26:51.761Z,97.26
2019-02-27T05:27:51.770Z,97.32
2019-02-27T05:28:51.682Z,97.22
2019-02-27T05:29:52.416Z,97.32
2019-02-27T05:30:51.607Z,97.47
2019-02-27T05:31:53.306Z,96.84
2019-02-27T05:32:51.577Z,97.36
2019-02-27T05:33:51.496Z,97.22
2019-02-27T05:34:51.461Z,97.85
2019-02-27T05:35:51.444Z,97.74
2019-02-27T05:36:51.388Z,97.63
2019-02-27T05:37:51.378Z,97.74
2019-02-27T05:38:51.320Z,97.95
2019-02-27T05:39:51.765Z,97.95
2019-02-27T05:40:51.244Z,98.16
2019-02-27T05:41:51.209Z,97.95
2019-02-27T05:42:51.236Z,97.63
2019-02-27T05:43:51.142Z,97.32
2019-02-27T05:44:55.523Z,97.22
2019-02-27T05:45:51.065Z,97.32
2019-02-27T05:46:51.027Z,97.26
2019-02-27T05:47:51.025Z,97.26
2019-02-27T05:48:53.399Z,97.78
2019-02-27T05:49:50.919Z,97.74
2019-02-27T05:50:50.882Z,97.32
2019-02-27T05:51:50.874Z,97.58
2019-02-27T05:52:51.015Z,97.78
2019-02-27T05:53:50.769Z,97.16
2019-02-27T05:54:50.734Z,97.26
2019-02-27T05:55:50.716Z,97.26
2019-02-27T05:56:50.659Z,97.47
2019-02-27T05:57:50.669Z,97.05
2019-02-27T05:58:50.587Z,96.84
2019-02-27T05:59:50.553Z,97.26
2019-02-27T06:00:50.514Z,97.47
2019-02-27T06:01:50.476Z,97.16
2019-02-27T06:02:50.448Z,97.36
2019-02-27T06:03:52.120Z,97.16
2019-02-27T06:04:50.930Z,97.68
2019-02-27T06:05:50.336Z,97.26
2019-02-27T06:06:50.298Z,97.26
2019-02-27T06:07:50.264Z,97.58
2019-02-27T06:08:50.282Z,97.47
2019-02-27T06:09:50.232Z,97.00
2019-02-27T06:10:55.123Z,97.42
2019-02-27T06:11:50.128Z,96.80
2019-02-27T06:12:50.087Z,97.49
2019-02-27T06:13:50.142Z,97.11
2019-02-27T06:14:50.010Z,96.86
2019-02-27T06:15:49.971Z,97.42
2019-02-27T06:16:49.942Z,97.53
2019-02-27T06:17:49.991Z,97.49
2019-02-27T06:18:49.887Z,97.74
2019-02-27T06:19:49.839Z,97.63
2019-02-27T06:20:49.793Z,97.38
2019-02-27T06:21:49.757Z,96.86
2019-02-27T06:22:49.724Z,96.75
2019-02-27T06:23:49.733Z,97.11
2019-02-27T06:24:49.647Z,97.06
2019-02-27T06:25:49.610Z,97.38
2019-02-27T06:26:49.572Z,96.65
2019-02-27T06:27:49.543Z,96.75
2019-02-27T06:28:49.540Z,97.38
2019-02-27T06:29:49.468Z,96.96
2019-02-27T06:30:49.429Z,97.06
2019-02-27T06:31:49.400Z,96.55
2019-02-27T06:32:49.355Z,96.44
2019-02-27T06:33:49.348Z,96.55
2019-02-27T06:34:49.281Z,96.75
2019-02-27T06:35:49.486Z,96.55
2019-02-27T06:36:49.212Z,96.44
2019-02-27T06:37:50.710Z,96.61
2019-02-27T06:38:49.167Z,96.29
2019-02-27T06:39:49.102Z,96.29
2019-02-27T06:40:49.067Z,96.61
2019-02-27T06:41:50.436Z,96.25
2019-02-27T06:42:53.450Z,96.04
2019-02-27T06:43:49.478Z,96.35
2019-02-27T06:44:48.923Z,96.14
2019-02-27T06:45:48.883Z,96.14
2019-02-27T06:46:51.111Z,96.04
2019-02-27T06:47:48.821Z,96.04
2019-02-27T06:48:48.806Z,95.93
2019-02-27T06:49:51.621Z,95.62
2019-02-27T06:50:48.703Z,95.83
2019-02-27T06:51:48.671Z,95.51
2019-02-27T06:52:48.630Z,95.20
2019-02-27T06:53:48.633Z,95.31
2019-02-27T06:54:51.898Z,95.26
2019-02-27T06:55:48.532Z,95.41
2019-02-27T06:56:48.493Z,95.41
2019-02-27T06:57:48.453Z,94.95
2019-02-27T06:58:50.110Z,95.31
2019-02-27T06:59:48.393Z,94.78
2019-02-27T07:00:48.342Z,95.26
2019-02-27T07:01:48.320Z,95.15
2019-02-27T07:02:48.284Z,95.26
2019-02-27T07:03:48.461Z,94.84
2019-02-27T07:04:48.226Z,94.74
2019-02-27T07:05:48.941Z,94.80
2019-02-27T07:06:48.141Z,95.01
2019-02-27T07:07:48.108Z,94.70
2019-02-27T07:08:48.099Z,94.90
2019-02-27T07:09:48.031Z,94.90
2019-02-27T07:10:47.987Z,95.11
2019-02-27T07:11:48.921Z,95.11
2019-02-27T07:12:47.916Z,95.11
2019-02-27T07:13:47.886Z,94.70
2019-02-27T07:14:47.871Z,94.86
2019-02-27T07:15:48.290Z,95.32
2019-02-27T07:16:47.771Z,95.07
2019-02-27T07:17:47.738Z,94.86
2019-02-27T07:18:47.705Z,94.76
2019-02-27T07:19:49.718Z,94.76
2019-02-27T07:20:47.644Z,95.34
2019-02-27T07:21:47.597Z,95.23
2019-02-27T07:22:47.580Z,95.23
2019-02-27T07:23:47.529Z,94.98
2019-02-27T07:24:47.617Z,95.23
2019-02-27T07:25:47.456Z,95.09
2019-02-27T07:26:47.547Z,94.98
2019-02-27T07:27:47.392Z,94.98
2019-02-27T07:28:47.355Z,94.52
2019-02-27T07:29:47.344Z,94.94
2019-02-27T07:30:47.276Z,95.04
2019-02-27T07:31:49.532Z,94.31
2019-02-27T07:32:47.212Z,94.63
2019-02-27T07:33:47.173Z,94.73
2019-02-27T07:34:49.747Z,94.69
2019-02-27T07:35:47.144Z,94.69
2019-02-27T07:36:47.067Z,94.75
2019-02-27T07:37:48.196Z,94.85
2019-02-27T07:38:47.003Z,94.43
2019-02-27T07:39:46.987Z,93.98
2019-02-27T07:40:46.930Z,93.66
2019-02-27T07:41:46.892Z,94.49
2019-02-27T07:42:46.853Z,93.62
2019-02-27T07:43:46.820Z,93.83
2019-02-27T07:44:46.817Z,93.58
2019-02-27T07:45:46.749Z,93.73
2019-02-27T07:46:46.715Z,93.05
2019-02-27T07:47:46.677Z,92.64
2019-02-27T07:48:46.647Z,92.95
2019-02-27T07:49:48.234Z,92.29
2019-02-27T07:50:49.119Z,91.46
2019-02-27T07:51:48.450Z,91.46
2019-02-27T07:52:46.501Z,90.37
2019-02-27T07:53:46.471Z,90.37
2019-02-27T07:54:46.478Z,89.33
2019-02-27T07:55:47.424Z,89.02
2019-02-27T07:56:46.418Z,89.50
2019-02-27T07:57:46.331Z,88.98
2019-02-27T07:58:46.297Z,89.39
2019-02-27T07:59:46.925Z,88.84
2019-02-27T08:00:47.096Z,88.94
2019-02-27T08:01:46.222Z,88.42
2019-02-27T08:02:46.167Z,88.21
2019-02-27T08:03:46.128Z,87.79
2019-02-27T08:04:46.122Z,87.59
2019-02-27T08:05:46.056Z,86.55
2019-02-27T08:06:46.030Z,85.93
2019-02-27T08:07:48.631Z,85.72
2019-02-27T08:08:46.926Z,85.82
2019-02-27T08:09:45.961Z,86.30
2019-02-27T08:10:45.923Z,86.82
2019-02-27T08:11:47.280Z,86.72
2019-02-27T08:12:45.816Z,85.78
2019-02-27T08:13:45.785Z,85.85
2019-02-27T08:14:45.964Z,85.68
2019-02-27T08:15:45.722Z,85.57
2019-02-27T08:16:45.682Z,85.33
2019-02-27T08:17:45.650Z,84.39
2019-02-27T08:18:45.618Z,83.87
2019-02-27T08:19:46.115Z,84.39
2019-02-27T08:20:45.550Z,84.25
2019-02-27T08:21:45.514Z,83.84
2019-02-27T08:22:45.477Z,83.63
2019-02-27T08:23:45.442Z,83.48
2019-02-27T08:24:45.442Z,82.76
2019-02-27T08:25:45.385Z,82.45
2019-02-27T08:26:45.357Z,81.62
2019-02-27T08:27:45.934Z,80.02
2019-02-27T08:28:45.271Z,80.85
2019-02-27T08:29:45.242Z,79.71
2019-02-27T08:30:45.248Z,79.16
2019-02-27T08:31:45.204Z,77.81
2019-02-27T08:32:45.209Z,77.61
2019-02-27T08:33:45.109Z,78.02
2019-02-27T08:34:45.082Z,78.64
2019-02-27T08:35:45.039Z,76.98
2019-02-27T08:36:45.003Z,77.36
2019-02-27T08:37:45.466Z,77.26
2019-02-27T08:38:44.942Z,77.15
2019-02-27T08:39:45.435Z,76.29
2019-02-27T08:40:44.915Z,75.26
2019-02-27T08:41:44.848Z,74.95
2019-02-27T08:42:44.809Z,73.57
2019-02-27T08:43:44.800Z,75.02
2019-02-27T08:44:45.770Z,74.60
2019-02-27T08:45:44.731Z,75.12
2019-02-27T08:46:44.675Z,74.81
2019-02-27T08:47:44.708Z,73.67
2019-02-27T08:48:44.607Z,73.98
2019-02-27T08:49:44.612Z,73.36
2019-02-27T08:50:44.581Z,73.98
2019-02-27T08:51:44.515Z,73.64
2019-02-27T08:52:50.504Z,73.12
2019-02-27T08:53:44.521Z,72.29
2019-02-27T08:54:44.403Z,71.95
2019-02-27T08:55:44.375Z,73.12
2019-02-27T08:56:47.173Z,72.47
2019-02-27T08:57:44.307Z,72.57
2019-02-27T08:58:44.303Z,72.47
2019-02-27T08:59:44.251Z,72.85
2019-02-27T09:00:47.134Z,72.47
2019-02-27T09:01:44.180Z,72.16
2019-02-27T09:02:44.144Z,71.64
2019-02-27T09:03:44.109Z,71.19
2019-02-27T09:04:45.415Z,72.85
2019-02-27T09:05:44.064Z,71.81
2019-02-27T09:06:44.013Z,71.40
2019-02-27T09:07:43.986Z,72.02
2019-02-27T09:08:44.348Z,71.47
2019-02-27T09:09:43.919Z,71.47
2019-02-27T09:10:43.922Z,71.88
2019-02-27T09:11:44.432Z,71.16
2019-02-27T09:12:45.432Z,70.92
2019-02-27T09:13:43.779Z,70.64
2019-02-27T09:14:43.752Z,70.57
2019-02-27T09:15:43.717Z,71.23
2019-02-27T09:16:43.713Z,70.51
2019-02-27T09:17:43.647Z,69.54
2019-02-27T09:18:44.207Z,69.54
2019-02-27T09:19:45.517Z,68.41
2019-02-27T09:20:43.597Z,68.79
2019-02-27T09:21:43.551Z,68.07
2019-02-27T09:22:44.440Z,68.48
2019-02-27T09:23:43.463Z,67.97
2019-02-27T09:24:43.472Z,68.45
2019-02-27T09:25:43.403Z,67.83
2019-02-27T09:26:43.386Z,67.83
2019-02-27T09:27:43.352Z,67.00
2019-02-27T09:28:44.461Z,67.00
2019-02-27T09:29:43.268Z,66.87
2019-02-27T09:30:43.941Z,66.36
2019-02-27T09:31:50.551Z,66.05
2019-02-27T09:32:43.296Z,65.09
2019-02-27T09:33:43.129Z,64.58
2019-02-27T09:34:43.936Z,64.34
2019-02-27T09:35:43.069Z,63.31
2019-02-27T09:36:43.938Z,64.31
2019-02-27T09:37:43.035Z,62.77
2019-02-27T09:38:45.206Z,63.28
2019-02-27T09:39:42.945Z,62.33
2019-02-27T09:40:42.924Z,61.91
2019-02-27T09:41:46.153Z,62.02
2019-02-27T09:42:42.873Z,61.40
2019-02-27T09:43:42.819Z,61.07
2019-02-27T09:44:43.442Z,59.93
2019-02-27T09:45:46.296Z,59.22
2019-02-27T09:46:42.717Z,58.78
2019-02-27T09:47:42.724Z,57.64
2019-02-27T09:48:42.657Z,58.03
2019-02-27T09:49:42.684Z,56.90
2019-02-27T09:50:47.769Z,57.21
2019-02-27T09:51:42.571Z,56.67
2019-02-27T09:52:42.564Z,56.56
2019-02-27T09:53:42.523Z,56.26
2019-02-27T09:54:46.796Z,56.56
2019-02-27T09:55:42.535Z,57.26
2019-02-27T09:56:42.462Z,56.23
2019-02-27T09:57:42.418Z,57.15
2019-02-27T09:58:45.529Z,57.15
2019-02-27T09:59:42.309Z,56.13
2019-02-27T10:00:42.277Z,54.59
2019-02-27T10:01:42.255Z,54.66
2019-02-27T10:02:43.169Z,54.77
2019-02-27T10:03:42.186Z,54.25
2019-02-27T10:04:42.149Z,54.53
2019-02-27T10:05:42.952Z,54.23
2019-02-27T10:06:42.764Z,54.23
2019-02-27T10:07:42.054Z,53.82
2019-02-27T10:08:42.058Z,53.51
2019-02-27T10:09:41.997Z,52.80
2019-02-27T10:10:44.854Z,53.90
2019-02-27T10:11:41.934Z,53.69
2019-02-27T10:12:42.359Z,54.21
2019-02-27T10:13:41.901Z,54.92
2019-02-27T10:14:41.844Z,54.10
2019-02-27T10:15:41.810Z,54.10
2019-02-27T10:16:42.477Z,54.82
2019-02-27T10:17:43.665Z,54.51
2019-02-27T10:18:41.748Z,54.38
2019-02-27T10:19:41.695Z,52.75
2019-02-27T10:20:41.657Z,52.44
2019-02-27T10:21:44.639Z,53.23
2019-02-27T10:22:41.600Z,53.75
2019-02-27T10:23:41.599Z,51.88
2019-02-27T10:24:41.535Z,51.37
2019-02-27T10:25:43.580Z,51.06
2019-02-27T10:26:41.474Z,50.96
2019-02-27T10:27:41.443Z,50.45
2019-02-27T10:28:41.437Z,50.75
2019-02-27T10:29:41.950Z,50.24
2019-02-27T10:30:41.347Z,51.16
2019-02-27T10:31:41.395Z,51.37
2019-02-27T10:32:41.301Z,50.85
2019-02-27T10:33:42.823Z,51.47
2019-02-27T10:34:41.232Z,50.22
2019-02-27T10:35:41.207Z,49.71
2019-02-27T10:36:41.183Z,48.07
2019-02-27T10:37:41.227Z,48.27
2019-02-27T10:38:41.138Z,48.05
2019-02-27T10:39:41.082Z,48.15
2019-02-27T10:40:41.953Z,47.94
2019-02-27T10:41:41.056Z,45.67
2019-02-27T10:42:40.992Z,46.80
2019-02-27T10:43:41.014Z,46.59
2019-02-27T10:44:40.928Z,46.70
2019-02-27T10:45:42.205Z,46.49
2019-02-27T10:46:40.911Z,46.08
2019-02-27T10:47:40.839Z,46.29
2019-02-27T10:48:40.988Z,46.08
2019-02-27T10:49:40.785Z,45.35
2019-02-27T10:50:40.776Z,45.86
2019-02-27T10:51:41.564Z,46.26
2019-02-27T10:52:40.691Z,46.37
2019-02-27T10:53:40.741Z,45.65
2019-02-27T10:54:40.645Z,45.25
2019-02-27T10:55:40.624Z,46.37
2019-02-27T10:56:41.451Z,45.65
2019-02-27T10:57:40.550Z,45.04
2019-02-27T10:58:40.986Z,45.02
2019-02-27T10:59:40.488Z,44.51
2019-02-27T11:00:40.454Z,43.90
2019-02-27T11:01:40.424Z,44.20
2019-02-27T11:02:40.392Z,43.79
2019-02-27T11:03:40.385Z,44.49
2019-02-27T11:04:40.334Z,43.37
2019-02-27T11:05:40.324Z,43.65
2019-02-27T11:06:40.285Z,43.65
2019-02-27T11:07:40.249Z,44.08
2019-02-27T11:08:40.243Z,43.35
2019-02-27T11:09:41.270Z,42.02
2019-02-27T11:10:40.159Z,40.90
2019-02-27T11:11:40.221Z,39.17
2019-02-27T11:12:40.954Z,39.98
2019-02-27T11:13:40.092Z,39.17
2019-02-27T11:14:40.078Z,39.17
2019-02-27T11:15:42.467Z,39.26
2019-02-27T11:16:39.993Z,40.17
2019-02-27T11:17:39.960Z,40.26
2019-02-27T11:18:39.949Z,40.66
2019-02-27T11:19:39.987Z,39.23
2019-02-27T11:20:39.869Z,39.33
2019-02-27T11:21:39.873Z,38.92
2019-02-27T11:22:39.804Z,39.43
2019-02-27T11:23:41.231Z,40.55
2019-02-27T11:24:39.771Z,39.23
2019-02-27T11:25:40.460Z,39.13
2019-02-27T11:26:39.702Z,38.72
2019-02-27T11:27:39.729Z,38.92
2019-02-27T11:28:39.630Z,39.94
2019-02-27T11:29:39.637Z,40.35
2019-02-27T11:30:40.465Z,40.35
2019-02-27T11:31:39.544Z,39.53
2019-02-27T11:32:40.454Z,39.23
2019-02-27T11:33:39.488Z,39.92
2019-02-27T11:34:39.498Z,39.84
2019-02-27T11:35:39.430Z,39.43
2019-02-27T11:36:39.661Z,39.33
2019-02-27T11:37:39.373Z,39.62
2019-02-27T11:38:39.342Z,38.01
2019-02-27T11:39:39.340Z,38.01
2019-02-27T11:40:42.122Z,38.11
2019-02-27T11:41:39.961Z,38.92
2019-02-27T11:42:39.957Z,39.53
2019-02-27T11:43:40.806Z,39.23
2019-02-27T11:44:39.515Z,39.53
2019-02-27T11:45:39.141Z,38.21
2019-02-27T11:46:39.110Z,37.60
2019-02-27T11:47:39.082Z,37.29
2019-02-27T11:48:39.051Z,37.58
2019-02-27T11:49:39.492Z,38.42
2019-02-27T11:50:39.003Z,37.88
2019-02-27T11:51:38.965Z,36.25
2019-02-27T11:52:48.272Z,36.66
2019-02-27T11:53:38.911Z,36.24
2019-02-27T11:54:42.999Z,36.65
2019-02-27T11:55:38.850Z,36.65
2019-02-27T11:56:38.826Z,36.24
2019-02-27T11:57:38.799Z,35.63
2019-02-27T11:58:39.155Z,35.95
2019-02-27T11:59:38.759Z,34.92
2019-02-27T12:00:38.707Z,35.93
2019-02-27T12:01:38.720Z,33.90
2019-02-27T12:02:38.650Z,33.18
2019-02-27T12:03:38.620Z,32.07
2019-02-27T12:04:38.998Z,32.68
2019-02-27T12:05:38.562Z,32.68
2019-02-27T12:06:41.326Z,32.76
2019-02-27T12:07:38.508Z,32.87
2019-02-27T12:08:38.495Z,32.05
2019-02-27T12:09:38.493Z,32.05
2019-02-27T12:10:38.424Z,33.07
2019-02-27T12:11:38.405Z,32.04
2019-02-27T12:12:38.374Z,32.24
2019-02-27T12:13:38.422Z,32.14
2019-02-27T12:14:38.336Z,32.04
2019-02-27T12:15:43.358Z,31.83
2019-02-27T12:16:38.254Z,31.22
2019-02-27T12:17:38.223Z,31.43
2019-02-27T12:18:38.194Z,32.32
2019-02-27T12:19:42.497Z,33.24
2019-02-27T12:20:38.142Z,32.53
2019-02-27T12:21:38.111Z,32.32
2019-02-27T12:22:38.079Z,33.44
2019-02-27T12:23:38.057Z,33.34
2019-02-27T12:24:38.022Z,33.75
2019-02-27T12:25:38.022Z,33.54
2019-02-27T12:26:38.255Z,32.43
2019-02-27T12:27:49.037Z,31.82
2019-02-27T12:28:37.913Z,31.62
2019-02-27T12:29:37.887Z,32.02
2019-02-27T12:30:38.027Z,32.73
2019-02-27T12:31:37.831Z,32.23
2019-02-27T12:32:37.797Z,31.92
2019-02-27T12:33:37.775Z,32.43
2019-02-27T12:34:37.814Z,32.53
2019-02-27T12:35:37.816Z,32.73
2019-02-27T12:36:37.686Z,32.82
2019-02-27T12:37:37.662Z,33.12
2019-02-27T12:38:39.288Z,33.44
2019-02-27T12:39:37.602Z,33.63
2019-02-27T12:40:37.609Z,33.23
2019-02-27T12:41:37.542Z,33.02
2019-02-27T12:42:42.164Z,33.51
2019-02-27T12:43:38.476Z,32.41
2019-02-27T12:44:37.465Z,31.09
2019-02-27T12:45:37.510Z,29.97
2019-02-27T12:46:37.404Z,30.07
2019-02-27T12:47:37.642Z,29.97
2019-02-27T12:48:37.968Z,31.29
2019-02-27T12:49:37.333Z,31.28
2019-02-27T12:50:37.319Z,31.28
2019-02-27T12:51:38.305Z,30.57